createdAt,value
2019-02-20T00:01:25.963Z,100050.81
2019-02-20T00:03:58.414Z,100048.97
2019-02-20T00:06:30.825Z,100050.31
2019-02-20T00:09:04.316Z,100050.93
2019-02-20T00:11:38.324Z,100053.13
2019-02-20T00:14:10.712Z,100047.27
2019-02-20T00:16:43.103Z,100048.80
2019-02-20T00:19:15.494Z,100050.44
2019-02-20T00:21:47.897Z,100051.63
2019-02-20T00:24:20.284Z,100056.72
2019-02-20T00:26:52.688Z,100057.30
2019-02-20T00:29:25.083Z,100054.69
2019-02-20T00:31:57.497Z,100049.59
2019-02-20T00:34:29.878Z,100052.95
2019-02-20T00:37:02.286Z,100049.12
2019-02-20T00:39:34.666Z,100052.70
2019-02-20T00:42:07.075Z,100051.66
2019-02-20T00:45:10.669Z,100054.05
2019-02-20T00:48:01.010Z,100053.83
2019-02-20T00:50:34.625Z,100055.20
2019-02-20T00:53:31.937Z,100059.78
2019-02-20T00:56:04.325Z,100059.86
2019-02-20T00:58:36.647Z,100059.27
2019-02-20T01:01:09.056Z,100064.97
2019-02-20T01:03:41.449Z,100064.13
2019-02-20T01:06:14.912Z,100061.34
2019-02-20T01:08:47.318Z,100057.41
2019-02-20T01:11:19.639Z,100059.45
2019-02-20T01:13:51.902Z,100062.09
2019-02-20T01:16:24.343Z,100065.52
2019-02-20T01:18:56.746Z,100064.17
2019-02-20T01:21:29.143Z,100069.78
2019-02-20T01:24:01.549Z,100076.96
2019-02-20T01:26:49.525Z,100079.25
2019-02-20T01:29:21.945Z,100079.98
2019-02-20T01:31:54.339Z,100076.13
2019-02-20T01:34:26.743Z,100070.16
2019-02-20T01:36:59.135Z,100065.98
2019-02-20T01:39:31.534Z,100071.56
2019-02-20T01:42:03.936Z,100076.06
2019-02-20T01:44:36.332Z,100073.20
2019-02-20T01:47:08.665Z,100070.29
2019-02-20T01:49:41.069Z,100066.05
2019-02-20T01:52:13.453Z,100060.80
2019-02-20T01:54:45.927Z,100062.88
2019-02-20T01:57:18.306Z,100058.63
2019-02-20T01:59:50.718Z,100066.41
2019-02-20T02:02:23.102Z,100061.08
2019-02-20T02:04:55.515Z,100061.02
2019-02-20T02:07:27.901Z,100066.98
2019-02-20T02:10:00.335Z,100060.05
2019-02-20T02:12:32.696Z,100057.43
2019-02-20T02:15:05.159Z,100057.03
2019-02-20T02:17:37.714Z,100056.05
2019-02-20T02:20:10.234Z,100060.25
2019-02-20T02:22:42.614Z,100059.95
2019-02-20T02:25:15.039Z,100060.64
2019-02-20T02:27:47.417Z,100061.33
2019-02-20T02:30:19.851Z,100055.49
2019-02-20T02:32:52.230Z,100050.38
2019-02-20T02:35:24.641Z,100048.06
2019-02-20T02:37:57.053Z,100049.72
2019-02-20T02:40:29.442Z,100045.30
2019-02-20T02:43:01.851Z,100045.38
2019-02-20T02:45:34.271Z,100041.63
2019-02-20T02:48:06.636Z,100042.33
2019-02-20T02:50:40.109Z,100043.06
2019-02-20T02:53:12.477Z,100041.67
2019-02-20T02:55:44.931Z,100048.96
2019-02-20T02:58:17.316Z,100044.70
2019-02-20T03:00:49.736Z,100044.25
2019-02-20T03:03:22.115Z,100046.17
2019-02-20T03:05:54.519Z,100045.95
2019-02-20T03:08:26.909Z,100042.44
2019-02-20T03:10:59.319Z,100040.96
2019-02-20T03:13:31.698Z,100046.38
2019-02-20T03:16:04.114Z,100049.40
2019-02-20T03:18:36.493Z,100049.31
2019-02-20T03:21:08.902Z,100047.15
2019-02-20T03:23:41.313Z,100052.75
2019-02-20T03:26:13.722Z,100047.88
2019-02-20T03:28:46.107Z,100044.89
2019-02-20T03:31:18.539Z,100042.52
2019-02-20T03:33:50.939Z,100040.91
2019-02-20T03:36:23.533Z,100044.67
2019-02-20T03:38:55.847Z,100042.78
2019-02-20T03:41:28.255Z,100040.67
2019-02-20T03:44:00.625Z,100046.87
2019-02-20T03:46:33.030Z,100051.61
2019-02-20T03:49:05.369Z,100054.31
2019-02-20T03:51:37.739Z,100053.58
2019-02-20T03:54:10.141Z,100052.88
2019-02-20T03:56:42.540Z,100056.72
2019-02-20T03:59:14.941Z,100062.36
2019-02-20T04:01:47.341Z,100065.83
2019-02-20T04:04:19.730Z,100066.50
2019-02-20T04:06:52.134Z,100065.80
2019-02-20T04:09:24.522Z,100065.02
2019-02-20T04:11:56.932Z,100068.42
2019-02-20T04:14:29.429Z,100065.69
2019-02-20T04:17:01.827Z,100061.06
2019-02-20T04:19:34.138Z,100066.73
2019-02-20T04:22:06.538Z,100067.95
2019-02-20T04:24:38.994Z,100068.56
2019-02-20T04:27:11.395Z,100070.86
2019-02-20T04:29:43.776Z,100073.05
2019-02-20T04:32:16.195Z,100076.81
2019-02-20T04:34:48.560Z,100074.87
2019-02-20T04:37:20.954Z,100074.34
2019-02-20T04:39:53.325Z,100078.27
2019-02-20T04:42:26.073Z,100080.16
2019-02-20T04:44:58.448Z,100071.03
2019-02-20T04:47:30.844Z,100069.94
2019-02-20T04:50:03.249Z,100070.09
2019-02-20T04:52:35.724Z,100070.48
2019-02-20T04:55:08.507Z,100067.81
2019-02-20T04:57:40.911Z,100077.05
2019-02-20T05:00:14.061Z,100078.46
2019-02-20T05:02:46.457Z,100077.66
2019-02-20T05:05:18.835Z,100076.81
2019-02-20T05:07:51.244Z,100083.19
2019-02-20T05:10:23.619Z,100086.91
2019-02-20T05:12:56.036Z,100081.21
2019-02-20T05:15:28.406Z,100087.84
2019-02-20T05:18:00.849Z,100085.63
2019-02-20T05:20:33.231Z,100089.26
2019-02-20T05:23:05.612Z,100094.64
2019-02-20T05:25:38.017Z,100092.89
2019-02-20T05:28:10.315Z,100099.02
2019-02-20T05:30:42.628Z,100098.17
2019-02-20T05:33:15.063Z,100093.21
2019-02-20T05:35:47.453Z,100093.77
2019-02-20T05:38:20.923Z,100098.06
2019-02-20T05:40:53.303Z,100098.71
2019-02-20T05:43:25.727Z,100100.54
2019-02-20T05:45:59.128Z,100103.49
2019-02-20T05:48:31.536Z,100098.11
2019-02-20T05:51:03.967Z,100099.64
2019-02-20T05:53:36.366Z,100096.15
2019-02-20T05:56:08.773Z,100093.56
2019-02-20T05:58:41.182Z,100088.48
2019-02-20T06:01:13.547Z,100102.37
2019-02-20T06:03:45.956Z,100100.92
2019-02-20T06:06:18.331Z,100108.37
2019-02-20T06:08:50.747Z,100109.45
2019-02-20T06:11:23.104Z,100109.84
2019-02-20T06:13:55.514Z,100116.55
2019-02-20T06:16:27.892Z,100122.14
2019-02-20T06:19:00.321Z,100130.83
2019-02-20T06:21:32.706Z,100128.13
2019-02-20T06:24:05.176Z,100128.24
2019-02-20T06:26:37.583Z,100126.39
2019-02-20T06:29:10.009Z,100135.44
2019-02-20T06:31:42.411Z,100134.92
2019-02-20T06:34:14.820Z,100142.67
2019-02-20T06:36:47.197Z,100137.03
2019-02-20T06:39:19.603Z,100140.57
2019-02-20T06:41:54.405Z,100147.52
2019-02-20T06:44:27.005Z,100144.08
2019-02-20T06:46:59.500Z,100145.16
2019-02-20T06:49:32.402Z,100151.23
2019-02-20T06:52:04.928Z,100150.61
2019-02-20T06:54:37.750Z,100152.80
2019-02-20T06:57:10.482Z,100155.79
2019-02-20T06:59:42.894Z,100156.59
2019-02-20T07:02:15.431Z,100158.55
2019-02-20T07:05:44.624Z,100164.34
2019-02-20T07:09:18.865Z,100156.17
2019-02-20T07:12:28.722Z,100155.70
2019-02-20T07:16:20.162Z,100157.57
2019-02-20T07:19:15.999Z,100159.81
2019-02-20T07:22:26.055Z,100161.54
2019-02-20T07:25:53.915Z,100158.06
2019-02-20T07:29:39.931Z,100163.89
2019-02-20T07:32:16.817Z,100163.02
2019-02-20T07:34:49.533Z,100157.76
2019-02-20T07:37:22.194Z,100159.40
2019-02-20T07:39:54.767Z,100158.22
2019-02-20T07:42:27.285Z,100162.70
2019-02-20T07:44:59.853Z,100164.30
2019-02-20T07:47:32.994Z,100168.23
2019-02-20T07:50:06.482Z,100173.37
2019-02-20T07:52:39.003Z,100176.88
2019-02-20T07:55:13.664Z,100182.62
2019-02-20T07:57:46.302Z,100185.09
2019-02-20T08:00:19.852Z,100188.94
2019-02-20T08:02:52.489Z,100186.51
2019-02-20T08:05:24.958Z,100187.66
2019-02-20T08:07:57.722Z,100189.81
2019-02-20T08:11:10.324Z,100197.75
2019-02-20T08:13:58.777Z,100200.65
2019-02-20T08:16:58.792Z,100204.52
2019-02-20T08:19:49.598Z,100212.91
2019-02-20T08:22:25.851Z,100213.85
2019-02-20T08:25:07.880Z,100208.88
2019-02-20T08:27:47.531Z,100217.30
2019-02-20T08:30:25.486Z,100213.72
2019-02-20T08:33:06.085Z,100214.34
2019-02-20T08:35:50.434Z,100217.14
2019-02-20T08:38:54.538Z,100218.75
2019-02-20T08:41:37.408Z,100216.34
2019-02-20T08:44:33.752Z,100222.86
2019-02-20T08:47:23.586Z,100223.80
2019-02-20T08:50:21.230Z,100222.42
2019-02-20T08:53:03.251Z,100229.09
2019-02-20T08:55:43.599Z,100229.95
2019-02-20T08:58:23.892Z,100228.27
2019-02-20T09:01:02.490Z,100228.34
2019-02-20T09:03:43.180Z,100232.00
2019-02-20T09:06:19.318Z,100227.95
2019-02-20T09:09:06.440Z,100231.39
2019-02-20T09:12:03.316Z,100237.55
2019-02-20T09:14:54.427Z,100234.22
2019-02-20T09:17:30.884Z,100235.27
2019-02-20T09:20:11.001Z,100239.77
2019-02-20T09:22:55.626Z,100242.14
2019-02-20T09:25:41.338Z,100245.03
2019-02-20T09:28:11.088Z,100241.63
2019-02-20T09:30:57.428Z,100244.67
2019-02-20T09:33:32.727Z,100237.30
2019-02-20T09:36:08.890Z,100241.27
2019-02-20T09:38:43.563Z,100240.23
2019-02-20T09:41:26.533Z,100242.61
2019-02-20T09:44:14.043Z,100246.89
2019-02-20T09:46:54.765Z,100248.94
2019-02-20T09:49:32.797Z,100250.75
2019-02-20T09:52:09.530Z,100247.17
2019-02-20T09:54:41.969Z,100246.30
2019-02-20T09:57:14.502Z,100245.30
2019-02-20T09:59:48.134Z,100251.09
2019-02-20T10:02:21.507Z,100247.69
2019-02-20T10:04:53.966Z,100248.17
2019-02-20T10:07:26.423Z,100247.13
2019-02-20T10:09:58.902Z,100244.43
2019-02-20T10:12:31.338Z,100249.84
2019-02-20T10:15:03.913Z,100263.78
2019-02-20T10:17:36.576Z,100255.86
2019-02-20T10:20:10.593Z,100262.33
2019-02-20T10:22:43.058Z,100256.38
2019-02-20T10:25:15.555Z,100263.12
2019-02-20T10:27:48.008Z,100261.30
2019-02-20T10:30:20.431Z,100259.98
2019-02-20T10:32:52.919Z,100252.60
2019-02-20T10:35:25.394Z,100249.20
2019-02-20T10:37:57.852Z,100251.61
2019-02-20T10:40:30.345Z,100253.09
2019-02-20T10:43:03.639Z,100247.37
2019-02-20T10:45:36.279Z,100250.28
2019-02-20T10:48:08.712Z,100251.20
2019-02-20T10:50:41.229Z,100255.45
2019-02-20T10:53:13.672Z,100256.38
2019-02-20T10:55:46.127Z,100251.41
2019-02-20T10:58:18.567Z,100254.14
2019-02-20T11:00:51.036Z,100254.44
2019-02-20T11:03:23.577Z,100249.08
2019-02-20T11:05:56.033Z,100249.55
2019-02-20T11:08:30.372Z,100247.53
2019-02-20T11:11:02.794Z,100246.70
2019-02-20T11:13:35.314Z,100248.89
2019-02-20T11:16:07.846Z,100248.58
2019-02-20T11:18:40.303Z,100245.34
2019-02-20T11:21:12.779Z,100242.36
2019-02-20T11:23:45.219Z,100240.47
2019-02-20T11:26:18.651Z,100245.06
2019-02-20T11:28:51.455Z,100243.27
2019-02-20T11:31:23.930Z,100237.86
2019-02-20T11:33:56.395Z,100238.24
2019-02-20T11:36:29.063Z,100237.09
2019-02-20T11:39:01.496Z,100238.87
2019-02-20T11:41:35.581Z,100240.11
2019-02-20T11:44:08.049Z,100233.45
2019-02-20T11:46:40.438Z,100235.62
2019-02-20T11:49:12.869Z,100236.39
2019-02-20T11:51:45.332Z,100234.63
2019-02-20T11:54:17.795Z,100230.97
2019-02-20T11:56:50.277Z,100231.66
2019-02-20T11:59:22.816Z,100230.39
2019-02-20T12:01:55.307Z,100223.99
2019-02-20T12:04:27.773Z,100221.04
2019-02-20T12:07:00.258Z,100223.98
2019-02-20T12:09:33.113Z,100226.65
2019-02-20T12:12:05.500Z,100220.01
2019-02-20T12:14:37.932Z,100226.50
2019-02-20T12:17:10.396Z,100224.13
2019-02-20T12:19:42.829Z,100223.66
2019-02-20T12:22:15.283Z,100222.48
2019-02-20T12:24:47.715Z,100217.05
2019-02-20T12:27:20.193Z,100217.05
2019-02-20T12:29:52.666Z,100219.54
2019-02-20T12:32:25.174Z,100218.11
2019-02-20T12:34:57.591Z,100221.77
2019-02-20T12:37:30.056Z,100224.97
2019-02-20T12:40:02.480Z,100218.70
2019-02-20T12:42:36.021Z,100223.27
2019-02-20T12:45:08.584Z,100222.55
2019-02-20T12:47:41.039Z,100218.50
2019-02-20T12:50:13.598Z,100217.31
2019-02-20T12:52:46.381Z,100218.57
2019-02-20T12:55:18.995Z,100218.47
2019-02-20T12:57:51.425Z,100221.83
2019-02-20T13:00:24.025Z,100216.54
2019-02-20T13:02:56.524Z,100220.69
2019-02-20T13:05:28.939Z,100219.20
2019-02-20T13:08:01.380Z,100217.31
2019-02-20T13:10:33.890Z,100213.98
2019-02-20T13:13:06.424Z,100206.34
2019-02-20T13:15:39.053Z,100208.70
2019-02-20T13:18:11.551Z,100205.05
2019-02-20T13:20:44.076Z,100205.58
2019-02-20T13:23:16.523Z,100197.59
2019-02-20T13:25:48.946Z,100202.78
2019-02-20T13:28:21.397Z,100202.06
2019-02-20T13:30:53.830Z,100200.53
2019-02-20T13:33:26.313Z,100193.19
2019-02-20T13:35:58.770Z,100191.20
2019-02-20T13:38:31.240Z,100193.66
2019-02-20T13:41:04.035Z,100197.41
2019-02-20T13:43:36.589Z,100195.09
2019-02-20T13:46:09.045Z,100194.69
2019-02-20T13:48:41.507Z,100196.20
2019-02-20T13:51:13.934Z,100191.61
2019-02-20T13:53:46.778Z,100192.41
2019-02-20T13:56:19.428Z,100193.52
2019-02-20T13:58:51.935Z,100194.77
2019-02-20T14:01:27.460Z,100195.41
2019-02-20T14:03:59.893Z,100192.19
2019-02-20T14:06:36.010Z,100192.97
2019-02-20T14:09:08.463Z,100189.53
2019-02-20T14:11:43.831Z,100186.88
2019-02-20T14:14:16.764Z,100189.47
2019-02-20T14:16:49.399Z,100184.38
2019-02-20T14:19:21.852Z,100183.04
2019-02-20T14:21:54.401Z,100183.78
2019-02-20T14:24:26.841Z,100182.06
2019-02-20T14:26:59.290Z,100179.05
2019-02-20T14:29:31.739Z,100185.02
2019-02-20T14:32:04.344Z,100186.55
2019-02-20T14:34:36.866Z,100183.81
2019-02-20T14:37:10.270Z,100182.19
2019-02-20T14:39:42.831Z,100179.53
2019-02-20T14:42:15.638Z,100179.11
2019-02-20T14:44:48.091Z,100175.14
2019-02-20T14:47:20.445Z,100177.86
2019-02-20T14:49:52.903Z,100176.06
2019-02-20T14:52:25.322Z,100174.35
2019-02-20T14:54:58.265Z,100175.13
2019-02-20T14:57:30.690Z,100176.57
2019-02-20T15:00:03.209Z,100175.94
2019-02-20T15:02:36.197Z,100174.76
2019-02-20T15:05:08.649Z,100177.30
2019-02-20T15:07:41.698Z,100174.98
2019-02-20T15:10:14.147Z,100176.76
2019-02-20T15:12:46.762Z,100175.63
2019-02-20T15:15:19.311Z,100174.30
2019-02-20T15:17:51.773Z,100173.31
2019-02-20T15:20:25.415Z,100172.70
2019-02-20T15:22:58.457Z,100175.65
2019-02-20T15:25:31.014Z,100177.56
2019-02-20T15:28:04.695Z,100175.49
2019-02-20T15:30:37.325Z,100173.60
2019-02-20T15:33:09.798Z,100172.66
2019-02-20T15:35:42.323Z,100175.02
2019-02-20T15:38:14.763Z,100174.88
2019-02-20T15:40:47.235Z,100171.39
2019-02-20T15:43:21.623Z,100172.50
2019-02-20T15:45:54.058Z,100172.65
2019-02-20T15:48:26.481Z,100172.91
2019-02-20T15:50:58.910Z,100177.36
2019-02-20T15:53:31.332Z,100172.69
2019-02-20T15:56:04.165Z,100172.41
2019-02-20T15:58:36.658Z,100168.70
2019-02-20T16:01:11.583Z,100168.70
2019-02-20T16:03:44.168Z,100169.23
2019-02-20T16:06:16.628Z,100169.10
2019-02-20T16:08:49.298Z,100167.47
2019-02-20T16:11:21.791Z,100169.72
2019-02-20T16:13:54.203Z,100167.75
2019-02-20T16:16:28.268Z,100174.43
2019-02-20T16:19:00.965Z,100177.25
2019-02-20T16:21:33.409Z,100178.98
2019-02-20T16:24:05.829Z,100179.53
2019-02-20T16:26:38.276Z,100178.17
2019-02-20T16:29:10.822Z,100180.70
2019-02-20T16:31:43.302Z,100180.86
2019-02-20T16:34:15.784Z,100183.42
2019-02-20T16:36:49.218Z,100180.59
2019-02-20T16:39:21.779Z,100182.34
2019-02-20T16:41:54.262Z,100184.27
2019-02-20T16:44:27.285Z,100188.27
2019-02-20T16:46:59.747Z,100183.20
2019-02-20T16:49:32.195Z,100187.13
2019-02-20T16:52:04.650Z,100180.97
2019-02-20T16:54:37.234Z,100179.62
2019-02-20T16:57:10.070Z,100175.48
2019-02-20T16:59:42.555Z,100179.33
2019-02-20T17:02:14.991Z,100182.98
2019-02-20T17:04:47.468Z,100185.17
2019-02-20T17:07:19.919Z,100190.42
2019-02-20T17:09:52.720Z,100190.66
2019-02-20T17:12:25.203Z,100188.57
2019-02-20T17:14:57.591Z,100187.71
2019-02-20T17:17:30.008Z,100195.75
2019-02-20T17:20:02.363Z,100193.07
2019-02-20T17:22:36.132Z,100197.62
2019-02-20T17:25:09.703Z,100202.19
2019-02-20T17:27:42.117Z,100204.80
2019-02-20T17:30:14.619Z,100204.50
2019-02-20T17:32:48.118Z,100207.47
2019-02-20T17:35:20.438Z,100212.81
2019-02-20T17:37:52.979Z,100217.18
2019-02-20T17:40:25.461Z,100220.97
2019-02-20T17:42:57.930Z,100224.61
2019-02-20T17:45:30.606Z,100220.69
2019-02-20T17:48:03.019Z,100225.91
2019-02-20T17:50:36.579Z,100226.58
2019-02-20T17:53:09.018Z,100233.37
2019-02-20T17:55:42.798Z,100234.58
2019-02-20T17:58:16.811Z,100231.41
2019-02-20T18:00:49.193Z,100235.97
2019-02-20T18:03:21.589Z,100240.41
2019-02-20T18:05:54.065Z,100245.06
2019-02-20T18:08:27.464Z,100240.47
2019-02-20T18:11:01.445Z,100242.59
2019-02-20T18:13:33.965Z,100254.47
2019-02-20T18:16:06.351Z,100260.51
2019-02-20T18:18:38.794Z,100256.45
2019-02-20T18:21:11.177Z,100258.22
2019-02-20T18:23:43.677Z,100262.53
2019-02-20T18:26:17.170Z,100264.41
2019-02-20T18:28:49.672Z,100267.14
2019-02-20T18:31:22.089Z,100267.52
2019-02-20T18:33:58.290Z,100267.44
2019-02-20T18:36:32.264Z,100269.62
2019-02-20T18:39:05.733Z,100271.20
2019-02-20T18:41:39.444Z,100274.95
2019-02-20T18:44:11.917Z,100279.61
2019-02-20T18:46:44.339Z,100281.13
2019-02-20T18:49:16.862Z,100279.54
2019-02-20T18:51:49.302Z,100278.58
2019-02-20T18:54:21.777Z,100280.70
2019-02-20T18:56:54.192Z,100278.94
2019-02-20T18:59:26.665Z,100282.28
2019-02-20T19:01:59.108Z,100279.89
2019-02-20T19:04:31.640Z,100286.59
2019-02-20T19:07:11.602Z,100281.73
2019-02-20T19:09:48.175Z,100285.31
2019-02-20T19:13:08.276Z,100287.84
2019-02-20T19:16:51.990Z,100287.89
2019-02-20T19:20:23.625Z,100289.25
2019-02-20T19:23:46.611Z,100294.91
2019-02-20T19:26:59.469Z,100299.16
2019-02-20T19:30:42.476Z,100298.02
2019-02-20T19:33:48.933Z,100301.84
2019-02-20T19:36:58.753Z,100306.61
2019-02-20T19:40:22.420Z,100313.47
2019-02-20T19:43:46.806Z,100308.14
2019-02-20T19:47:28.574Z,100308.92
2019-02-20T19:50:44.486Z,100305.71
2019-02-20T19:53:59.834Z,100308.00
2019-02-20T19:57:36.685Z,100309.59
2019-02-20T20:01:17.322Z,100312.68
2019-02-20T20:04:43.655Z,100319.80
2019-02-20T20:08:00.277Z,100322.30
2019-02-20T20:11:29.862Z,100322.61
2019-02-20T20:14:54.598Z,100324.23
2019-02-20T20:18:33.889Z,100332.41
2019-02-20T20:21:37.460Z,100325.77
2019-02-20T20:24:54.114Z,100333.78
2019-02-20T20:28:20.073Z,100333.27
2019-02-20T20:31:47.661Z,100331.20
2019-02-20T20:35:38.452Z,100332.91
2019-02-20T20:39:07.078Z,100339.63
2019-02-20T20:42:56.024Z,100340.49
2019-02-20T20:45:53.226Z,100337.32
2019-02-20T20:48:58.399Z,100342.67
2019-02-20T20:52:39.322Z,100345.17
2019-02-20T20:56:11.073Z,100339.88
2019-02-20T20:59:26.373Z,100346.58
2019-02-20T21:02:37.904Z,100344.79
2019-02-20T21:06:13.390Z,100342.92
2019-02-20T21:09:38.607Z,100345.55
2019-02-20T21:12:59.285Z,100341.94
2019-02-20T21:16:34.195Z,100342.55
2019-02-20T21:20:12.488Z,100346.73
2019-02-20T21:23:34.280Z,100345.19
2019-02-20T21:26:49.220Z,100342.02
2019-02-20T21:30:09.857Z,100348.52
2019-02-20T21:33:59.858Z,100349.13
2019-02-20T21:37:19.665Z,100350.30
2019-02-20T21:40:04.311Z,100352.02
2019-02-20T21:43:55.585Z,100346.60
2019-02-20T21:47:15.683Z,100341.77
2019-02-20T21:50:50.543Z,100355.23
2019-02-20T21:54:07.780Z,100356.66
2019-02-20T21:57:03.567Z,100355.33
2019-02-20T22:00:37.199Z,100354.25
2019-02-20T22:03:49.326Z,100359.59
2019-02-20T22:07:41.045Z,100366.02
2019-02-20T22:11:10.841Z,100372.37
2019-02-20T22:14:52.345Z,100371.81
2019-02-20T22:18:55.182Z,100370.52
2019-02-20T22:22:32.090Z,100372.71
2019-02-20T22:26:08.757Z,100380.88
2019-02-20T22:29:17.897Z,100379.89
2019-02-20T22:32:21.635Z,100380.19
2019-02-20T22:35:44.818Z,100383.70
2019-02-20T22:39:18.955Z,100378.23
2019-02-20T22:42:37.168Z,100384.59
2019-02-20T22:46:11.304Z,100386.05
2019-02-20T22:50:14.793Z,100378.38
2019-02-20T22:53:30.260Z,100386.25
2019-02-20T22:57:08.742Z,100383.47
2019-02-20T23:00:21.487Z,100387.04
2019-02-20T23:03:41.515Z,100385.73
2019-02-20T23:06:48.765Z,100394.24
2019-02-20T23:10:12.423Z,100402.75
2019-02-20T23:13:56.615Z,100403.45
2019-02-20T23:16:29.019Z,100408.00
2019-02-20T23:19:01.405Z,100412.17
2019-02-20T23:21:33.814Z,100411.69
2019-02-20T23:24:06.193Z,100412.00
2019-02-20T23:26:38.617Z,100416.86
2019-02-20T23:29:11.055Z,100411.70
2019-02-20T23:31:43.538Z,100411.73
2019-02-20T23:34:15.950Z,100414.66
2019-02-20T23:36:48.367Z,100420.75
2019-02-20T23:39:20.762Z,100421.28
2019-02-20T23:41:53.089Z,100422.70
2019-02-20T23:44:25.477Z,100428.66
2019-02-20T23:46:57.901Z,100425.61
2019-02-20T23:49:30.303Z,100417.05
2019-02-20T23:52:02.708Z,100417.49
2019-02-20T23:54:35.092Z,100423.00
2019-02-20T23:57:07.490Z,100421.91
2019-02-20T23:59:39.880Z,100426.53
